sensor_id;sensor_type;location;lat;lon;timestamp;pressure;altitude;pressure_sealevel;temperature;humidity
38716;BME280;24833;49.324;8.694;2023-02-10T00:01:57;101732.13;;;-0.59;69.30
38716;BME280;24833;49.324;8.694;2023-02-10T00:04:24;101738.22;;;-0.58;69.44
38716;BME280;24833;49.324;8.694;2023-02-10T00:06:50;101735.69;;;-0.60;69.47
38716;BME280;24833;49.324;8.694;2023-02-10T00:09:17;101723.44;;;-0.59;70.10
38716;BME280;24833;49.324;8.694;2023-02-10T00:11:44;101726.03;;;-0.59;69.99
38716;BME280;24833;49.324;8.694;2023-02-10T00:14:23;101724.34;;;-0.60;70.38
38716;BME280;24833;49.324;8.694;2023-02-10T00:16:52;101726.03;;;-0.59;70.23
38716;BME280;24833;49.324;8.694;2023-02-10T00:19:21;101734.75;;;-0.59;69.88
38716;BME280;24833;49.324;8.694;2023-02-10T00:21:48;101735.63;;;-0.58;70.05
38716;BME280;24833;49.324;8.694;2023-02-10T00:24:15;101738.22;;;-0.58;69.75
38716;BME280;24833;49.324;8.694;2023-02-10T00:26:42;101740.78;;;-0.57;69.82
38716;BME280;24833;49.324;8.694;2023-02-10T00:29:09;101738.16;;;-0.57;69.27
38716;BME280;24833;49.324;8.694;2023-02-10T00:31:38;101744.25;;;-0.56;69.40
38716;BME280;24833;49.324;8.694;2023-02-10T00:34:06;101752.19;;;-0.58;69.68
38716;BME280;24833;49.324;8.694;2023-02-10T00:36:33;101745.25;;;-0.59;70.09
38716;BME280;24833;49.324;8.694;2023-02-10T00:39:01;101747.88;;;-0.59;69.94
38716;BME280;24833;49.324;8.694;2023-02-10T00:41:28;101743.59;;;-0.61;69.62
38716;BME280;24833;49.324;8.694;2023-02-10T00:43:55;101751.47;;;-0.61;69.76
38716;BME280;24833;49.324;8.694;2023-02-10T00:46:22;101761.06;;;-0.60;69.65
38716;BME280;24833;49.324;8.694;2023-02-10T00:48:50;101761.13;;;-0.62;69.87
38716;BME280;24833;49.324;8.694;2023-02-10T00:51:19;101762.06;;;-0.63;70.12
38716;BME280;24833;49.324;8.694;2023-02-10T00:53:46;101760.34;;;-0.64;70.54
38716;BME280;24833;49.324;8.694;2023-02-10T00:56:17;101762.97;;;-0.64;70.21
38716;BME280;24833;49.324;8.694;2023-02-10T00:58:47;101760.44;;;-0.65;70.39
38716;BME280;24833;49.324;8.694;2023-02-10T01:01:14;101769.25;;;-0.66;70.24
38716;BME280;24833;49.324;8.694;2023-02-10T01:03:41;101763.19;;;-0.68;70.44
38716;BME280;24833;49.324;8.694;2023-02-10T01:06:10;101773.69;;;-0.68;70.44
38716;BME280;24833;49.324;8.694;2023-02-10T01:08:40;101775.38;;;-0.67;70.13
38716;BME280;24833;49.324;8.694;2023-02-10T01:11:10;101780.63;;;-0.67;70.65
38716;BME280;24833;49.324;8.694;2023-02-10T01:13:39;101786.75;;;-0.67;70.43
38716;BME280;24833;49.324;8.694;2023-02-10T01:16:10;101794.63;;;-0.67;69.64
38716;BME280;24833;49.324;8.694;2023-02-10T01:18:40;101803.34;;;-0.66;70.16
38716;BME280;24833;49.324;8.694;2023-02-10T01:21:11;101800.75;;;-0.68;70.31
38716;BME280;24833;49.324;8.694;2023-02-10T01:23:38;101798.22;;;-0.69;70.01
38716;BME280;24833;49.324;8.694;2023-02-10T01:26:06;101804.38;;;-0.70;70.11
38716;BME280;24833;49.324;8.694;2023-02-10T01:28:33;101803.63;;;-0.72;70.64
38716;BME280;24833;49.324;8.694;2023-02-10T01:31:08;101800.19;;;-0.74;70.83
38716;BME280;24833;49.324;8.694;2023-02-10T01:33:36;101799.44;;;-0.76;70.37
38716;BME280;24833;49.324;8.694;2023-02-10T01:36:06;101798.66;;;-0.78;70.60
38716;BME280;24833;49.324;8.694;2023-02-10T01:38:34;101797.88;;;-0.80;70.81
38716;BME280;24833;49.324;8.694;2023-02-10T01:41:03;101797.81;;;-0.79;70.59
38716;BME280;24833;49.324;8.694;2023-02-10T01:43:30;101796.13;;;-0.80;70.54
38716;BME280;24833;49.324;8.694;2023-02-10T01:45:57;101805.72;;;-0.80;71.39
38716;BME280;24833;49.324;8.694;2023-02-10T01:48:26;101800.47;;;-0.80;70.96
38716;BME280;24833;49.324;8.694;2023-02-10T01:51:02;101805.72;;;-0.80;70.47
38716;BME280;24833;49.324;8.694;2023-02-10T01:53:32;101800.66;;;-0.84;71.01
38716;BME280;24833;49.324;8.694;2023-02-10T01:56:01;101798.94;;;-0.85;70.80
38716;BME280;24833;49.324;8.694;2023-02-10T01:58:31;101799.06;;;-0.88;70.77
38716;BME280;24833;49.324;8.694;2023-02-10T02:01:00;101794.00;;;-0.91;70.89
38716;BME280;24833;49.324;8.694;2023-02-10T02:03:27;101793.13;;;-0.91;71.07
38716;BME280;24833;49.324;8.694;2023-02-10T02:05:54;101795.84;;;-0.93;71.33
38716;BME280;24833;49.324;8.694;2023-02-10T02:08:25;101793.25;;;-0.94;71.31
38716;BME280;24833;49.324;8.694;2023-02-10T02:17:06;101790.81;;;-0.97;70.96
38716;BME280;24833;49.324;8.694;2023-02-10T02:32:22;101794.56;;;-1.03;70.70
38716;BME280;24833;49.324;8.694;2023-02-10T02:35:04;101793.78;;;-1.05;70.68
38716;BME280;24833;49.324;8.694;2023-02-10T02:37:40;101792.94;;;-1.05;71.00
38716;BME280;24833;49.324;8.694;2023-02-10T02:40:11;101798.19;;;-1.05;71.16
38716;BME280;24833;49.324;8.694;2023-02-10T02:42:39;101795.56;;;-1.05;71.24
38716;BME280;24833;49.324;8.694;2023-02-10T02:45:18;101799.94;;;-1.06;70.36
38716;BME280;24833;49.324;8.694;2023-02-10T02:48:04;101804.34;;;-1.06;70.51
38716;BME280;24833;49.324;8.694;2023-02-10T02:50:38;101807.94;;;-1.09;71.74
38716;BME280;24833;49.324;8.694;2023-02-10T03:01:56;101820.13;;;-1.08;69.82
38716;BME280;24833;49.324;8.694;2023-02-10T03:04:31;101828.97;;;-1.11;70.35
38716;BME280;24833;49.324;8.694;2023-02-10T03:07:01;101831.69;;;-1.12;70.16
38716;BME280;24833;49.324;8.694;2023-02-10T03:09:28;101836.13;;;-1.14;69.84
38716;BME280;24833;49.324;8.694;2023-02-10T03:11:56;101839.66;;;-1.15;69.96
38716;BME280;24833;49.324;8.694;2023-02-10T03:14:23;101837.19;;;-1.18;69.35
38716;BME280;24833;49.324;8.694;2023-02-10T03:16:50;101845.13;;;-1.20;69.91
38716;BME280;24833;49.324;8.694;2023-02-10T03:19:17;101846.94;;;-1.22;69.95
38716;BME280;24833;49.324;8.694;2023-02-10T03:21:44;101840.94;;;-1.24;70.22
38716;BME280;24833;49.324;8.694;2023-02-10T03:24:11;101841.00;;;-1.25;71.35
38716;BME280;24833;49.324;8.694;2023-02-10T03:26:38;101842.06;;;-1.29;71.35
38716;BME280;24833;49.324;8.694;2023-02-10T03:29:06;101836.03;;;-1.31;71.28
38716;BME280;24833;49.324;8.694;2023-02-10T03:31:33;101836.97;;;-1.32;70.94
38716;BME280;24833;49.324;8.694;2023-02-10T03:34:00;101837.88;;;-1.33;71.32
38716;BME280;24833;49.324;8.694;2023-02-10T03:36:27;101838.72;;;-1.33;71.55
38716;BME280;24833;49.324;8.694;2023-02-10T03:38:54;101846.63;;;-1.34;70.71
38716;BME280;24833;49.324;8.694;2023-02-10T03:41:21;101837.06;;;-1.35;70.72
38716;BME280;24833;49.324;8.694;2023-02-10T03:43:48;101838.00;;;-1.37;70.52
38716;BME280;24833;49.324;8.694;2023-02-10T03:46:15;101834.59;;;-1.39;71.20
38716;BME280;24833;49.324;8.694;2023-02-10T03:48:42;101834.59;;;-1.39;70.76
38716;BME280;24833;49.324;8.694;2023-02-10T03:51:09;101832.91;;;-1.40;70.75
38716;BME280;24833;49.324;8.694;2023-02-10T03:53:37;101832.09;;;-1.42;71.17
38716;BME280;24833;49.324;8.694;2023-02-10T03:56:04;101840.97;;;-1.44;70.89
38716;BME280;24833;49.324;8.694;2023-02-10T03:58:31;101844.50;;;-1.45;71.12
38716;BME280;24833;49.324;8.694;2023-02-10T04:00:58;101848.03;;;-1.46;70.96
38716;BME280;24833;49.324;8.694;2023-02-10T04:03:25;101847.25;;;-1.48;71.38
38716;BME280;24833;49.324;8.694;2023-02-10T04:05:52;101844.69;;;-1.50;71.52
38716;BME280;24833;49.324;8.694;2023-02-10T04:08:19;101844.78;;;-1.51;71.96
38716;BME280;24833;49.324;8.694;2023-02-10T04:10:46;101840.50;;;-1.54;72.63
38716;BME280;24833;49.324;8.694;2023-02-10T04:13:13;101845.88;;;-1.57;71.54
38716;BME280;24833;49.324;8.694;2023-02-10T04:15:40;101847.84;;;-1.62;71.96
38716;BME280;24833;49.324;8.694;2023-02-10T04:18:07;101847.22;;;-1.67;71.57
38716;BME280;24833;49.324;8.694;2023-02-10T04:20:34;101849.00;;;-1.69;71.56
38716;BME280;24833;49.324;8.694;2023-02-10T04:23:01;101847.31;;;-1.70;71.28
38716;BME280;24833;49.324;8.694;2023-02-10T04:25:28;101850.84;;;-1.71;71.85
38716;BME280;24833;49.324;8.694;2023-02-10T04:27:55;101846.53;;;-1.72;72.52
38716;BME280;24833;49.324;8.694;2023-02-10T04:30:21;101846.53;;;-1.72;72.29
38716;BME280;24833;49.324;8.694;2023-02-10T04:32:48;101851.78;;;-1.72;71.96
38716;BME280;24833;49.324;8.694;2023-02-10T04:35:15;101849.00;;;-1.69;73.11
38716;BME280;24833;49.324;8.694;2023-02-10T04:37:42;101858.56;;;-1.68;72.55
38716;BME280;24833;49.324;8.694;2023-02-10T04:40:10;101856.75;;;-1.66;72.59
38716;BME280;24833;49.324;8.694;2023-02-10T04:42:36;101856.75;;;-1.66;72.89
38716;BME280;24833;49.324;8.694;2023-02-10T04:45:04;101858.47;;;-1.65;72.70
38716;BME280;24833;49.324;8.694;2023-02-10T04:47:31;101862.91;;;-1.67;72.28
38716;BME280;24833;49.324;8.694;2023-02-10T04:49:58;101862.00;;;-1.66;72.38
38716;BME280;24833;49.324;8.694;2023-02-10T04:52:25;101868.94;;;-1.65;72.36
38716;BME280;24833;49.324;8.694;2023-02-10T04:54:52;101871.56;;;-1.65;72.31
38716;BME280;24833;49.324;8.694;2023-02-10T04:57:19;101875.00;;;-1.65;71.97
38716;BME280;24833;49.324;8.694;2023-02-10T04:59:46;101879.41;;;-1.65;72.31
38716;BME280;24833;49.324;8.694;2023-02-10T05:02:13;101876.00;;;-1.67;72.25
38716;BME280;24833;49.324;8.694;2023-02-10T05:04:40;101877.75;;;-1.68;71.74
38716;BME280;24833;49.324;8.694;2023-02-10T05:07:10;101877.81;;;-1.69;71.96
38716;BME280;24833;49.324;8.694;2023-02-10T05:09:37;101881.34;;;-1.70;72.64
38716;BME280;24833;49.324;8.694;2023-02-10T05:12:04;101884.22;;;-1.76;72.58
38716;BME280;24833;49.324;8.694;2023-02-10T05:14:31;101881.88;;;-1.82;72.38
38716;BME280;24833;49.324;8.694;2023-02-10T05:16:58;101888.16;;;-1.86;72.71
38716;BME280;24833;49.324;8.694;2023-02-10T05:19:25;101897.97;;;-1.92;72.75
38716;BME280;24833;49.324;8.694;2023-02-10T05:21:52;101901.50;;;-1.93;72.82
38716;BME280;24833;49.324;8.694;2023-02-10T05:24:19;101901.50;;;-1.93;72.75
38716;BME280;24833;49.324;8.694;2023-02-10T05:26:46;101903.19;;;-1.92;72.82
38716;BME280;24833;49.324;8.694;2023-02-10T05:29:13;101907.50;;;-1.90;73.41
38716;BME280;24833;49.324;8.694;2023-02-10T05:31:40;101917.06;;;-1.89;73.44
38716;BME280;24833;49.324;8.694;2023-02-10T05:34:07;101910.88;;;-1.87;73.16
38716;BME280;24833;49.324;8.694;2023-02-10T05:36:34;101919.50;;;-1.85;73.13
38716;BME280;24833;49.324;8.694;2023-02-10T05:39:01;101915.13;;;-1.84;73.45
38716;BME280;24833;49.324;8.694;2023-02-10T05:41:47;101920.34;;;-1.84;73.93
38716;BME280;24833;49.324;8.694;2023-02-10T05:44:14;101920.34;;;-1.84;73.57
38716;BME280;24833;49.324;8.694;2023-02-10T05:46:41;101921.19;;;-1.84;73.38
38716;BME280;24833;49.324;8.694;2023-02-10T05:49:09;101928.97;;;-1.82;73.77
38716;BME280;24833;49.324;8.694;2023-02-10T05:51:36;101926.44;;;-1.84;73.53
38716;BME280;24833;49.324;8.694;2023-02-10T05:54:03;101922.06;;;-1.83;73.81
38716;BME280;24833;49.324;8.694;2023-02-10T05:56:30;101920.28;;;-1.83;73.78
38716;BME280;24833;49.324;8.694;2023-02-10T05:58:57;101929.84;;;-1.82;73.54
38716;BME280;24833;49.324;8.694;2023-02-10T06:01:24;101918.44;;;-1.81;74.59
38716;BME280;24833;49.324;8.694;2023-02-10T06:03:51;101921.19;;;-1.84;74.28
38716;BME280;24833;49.324;8.694;2023-02-10T06:06:18;101920.34;;;-1.84;74.75
38716;BME280;24833;49.324;8.694;2023-02-10T06:08:45;101927.44;;;-1.86;74.60
38716;BME280;24833;49.324;8.694;2023-02-10T06:11:12;101937.91;;;-1.86;74.20
38716;BME280;24833;49.324;8.694;2023-02-10T06:13:39;101941.41;;;-1.87;74.51
38716;BME280;24833;49.324;8.694;2023-02-10T06:16:06;101944.94;;;-1.88;74.37
38716;BME280;24833;49.324;8.694;2023-02-10T06:18:33;101946.78;;;-1.90;74.34
38716;BME280;24833;49.324;8.694;2023-02-10T06:21:01;101954.63;;;-1.90;74.43
38716;BME280;24833;49.324;8.694;2023-02-10T06:23:28;101962.47;;;-1.90;74.48
38716;BME280;24833;49.324;8.694;2023-02-10T06:25:55;101959.84;;;-1.90;74.31
38716;BME280;24833;49.324;8.694;2023-02-10T06:28:27;101956.31;;;-1.89;74.99
38716;BME280;24833;49.324;8.694;2023-02-10T06:30:55;101958.03;;;-1.88;75.22
38716;BME280;24833;49.324;8.694;2023-02-10T06:33:22;101960.78;;;-1.92;74.55
38716;BME280;24833;49.324;8.694;2023-02-10T06:35:49;101955.66;;;-1.95;74.52
38716;BME280;24833;49.324;8.694;2023-02-10T06:38:17;101952.25;;;-1.97;74.96
38716;BME280;24833;49.324;8.694;2023-02-10T06:40:44;101952.38;;;-2.00;75.62
38716;BME280;24833;49.324;8.694;2023-02-10T06:43:11;101955.84;;;-1.99;75.87
38716;BME280;24833;49.324;8.694;2023-02-10T06:45:38;101955.00;;;-2.00;75.74
38716;BME280;24833;49.324;8.694;2023-02-10T06:48:05;101957.63;;;-2.00;75.63
38716;BME280;24833;49.324;8.694;2023-02-10T06:50:32;101960.25;;;-2.00;75.14
38716;BME280;24833;49.324;8.694;2023-02-10T06:52:59;101964.66;;;-2.02;75.38
38716;BME280;24833;49.324;8.694;2023-02-10T06:55:26;101952.50;;;-2.03;75.25
38716;BME280;24833;49.324;8.694;2023-02-10T06:57:53;101948.94;;;-2.02;75.54
38716;BME280;24833;49.324;8.694;2023-02-10T07:00:20;101953.41;;;-2.04;76.10
38716;BME280;24833;49.324;8.694;2023-02-10T07:02:47;101951.63;;;-2.03;75.54
38716;BME280;24833;49.324;8.694;2023-02-10T07:05:16;101954.19;;;-2.02;75.33
38716;BME280;24833;49.324;8.694;2023-02-10T07:07:43;101965.50;;;-2.01;76.46
38716;BME280;24833;49.324;8.694;2023-02-10T07:10:10;101963.63;;;-1.98;76.02
38716;BME280;24833;49.324;8.694;2023-02-10T07:12:38;101970.50;;;-1.95;74.59
38716;BME280;24833;49.324;8.694;2023-02-10T07:15:06;101964.31;;;-1.93;74.61
38716;BME280;24833;49.324;8.694;2023-02-10T07:17:33;101961.63;;;-1.91;75.63
38716;BME280;24833;49.324;8.694;2023-02-10T07:20:00;101961.50;;;-1.88;75.78
38716;BME280;24833;49.324;8.694;2023-02-10T07:22:27;101966.69;;;-1.86;75.88
38716;BME280;24833;49.324;8.694;2023-02-10T07:24:54;101972.72;;;-1.84;76.39
38716;BME280;24833;49.324;8.694;2023-02-10T07:27:20;101970.88;;;-1.82;76.02
38716;BME280;24833;49.324;8.694;2023-02-10T07:29:48;101974.31;;;-1.80;76.20
38716;BME280;24833;49.324;8.694;2023-02-10T07:32:15;101976.00;;;-1.79;76.09
38716;BME280;24833;49.324;8.694;2023-02-10T07:34:42;101978.47;;;-1.76;76.42
38716;BME280;24833;49.324;8.694;2023-02-10T07:37:09;101979.25;;;-1.74;76.04
38716;BME280;24833;49.324;8.694;2023-02-10T07:39:36;101980.84;;;-1.70;75.39
38716;BME280;24833;49.324;8.694;2023-02-10T07:42:03;101984.25;;;-1.68;76.41
38716;BME280;24833;49.324;8.694;2023-02-10T07:44:47;101987.69;;;-1.66;75.94
38716;BME280;24833;49.324;8.694;2023-02-10T07:47:14;101981.47;;;-1.63;76.44
38716;BME280;24833;49.324;8.694;2023-02-10T07:49:41;101977.00;;;-1.61;77.00
38716;BME280;24833;49.324;8.694;2023-02-10T07:52:08;101975.19;;;-1.59;76.98
38716;BME280;24833;49.324;8.694;2023-02-10T07:54:36;101972.38;;;-1.55;75.95
38716;BME280;24833;49.324;8.694;2023-02-10T07:57:03;101969.63;;;-1.52;76.42
38716;BME280;24833;49.324;8.694;2023-02-10T07:59:30;101967.69;;;-1.47;77.16
38716;BME280;24833;49.324;8.694;2023-02-10T08:01:57;101967.41;;;-1.41;77.48
38716;BME280;24833;49.324;8.694;2023-02-10T08:04:24;101964.53;;;-1.34;77.80
38716;BME280;24833;49.324;8.694;2023-02-10T08:06:51;101966.03;;;-1.29;76.65
38716;BME280;24833;49.324;8.694;2023-02-10T08:09:20;101967.56;;;-1.23;76.64
38716;BME280;24833;49.324;8.694;2023-02-10T08:11:46;101974.31;;;-1.18;77.14
38716;BME280;24833;49.324;8.694;2023-02-10T08:14:14;101980.25;;;-1.14;77.14
38716;BME280;24833;49.324;8.694;2023-02-10T08:16:41;101983.53;;;-1.09;76.95
38716;BME280;24833;49.324;8.694;2023-02-10T08:19:07;101978.88;;;-1.02;76.91
38716;BME280;24833;49.324;8.694;2023-02-10T08:21:34;101979.47;;;-0.96;77.26
38716;BME280;24833;49.324;8.694;2023-02-10T08:24:01;101987.91;;;-0.89;77.42
38716;BME280;24833;49.324;8.694;2023-02-10T08:26:29;101977.09;;;-0.82;77.43
38716;BME280;24833;49.324;8.694;2023-02-10T08:28:56;101985.50;;;-0.73;77.24
38716;BME280;24833;49.324;8.694;2023-02-10T08:31:25;101978.13;;;-0.65;77.64
38716;BME280;24833;49.324;8.694;2023-02-10T08:33:52;101998.69;;;-0.56;77.11
38716;BME280;24833;49.324;8.694;2023-02-10T08:36:20;101999.19;;;-0.48;76.52
38716;BME280;24833;49.324;8.694;2023-02-10T08:38:49;101993.56;;;-0.39;76.52
38716;BME280;24833;49.324;8.694;2023-02-10T08:41:17;101994.03;;;-0.31;76.50
38716;BME280;24833;49.324;8.694;2023-02-10T08:43:45;102002.34;;;-0.21;76.45
38716;BME280;24833;49.324;8.694;2023-02-10T08:46:12;102007.25;;;-0.13;76.77
38716;BME280;24833;49.324;8.694;2023-02-10T08:48:39;102003.41;;;-0.06;76.55
38716;BME280;24833;49.324;8.694;2023-02-10T08:51:11;102009.16;;;0.02;76.68
38716;BME280;24833;49.324;8.694;2023-02-10T08:53:39;102006.16;;;0.10;76.37
38716;BME280;24833;49.324;8.694;2023-02-10T08:56:10;102019.69;;;0.19;76.21
38716;BME280;24833;49.324;8.694;2023-02-10T08:58:39;102017.63;;;0.26;76.13
38716;BME280;24833;49.324;8.694;2023-02-10T09:01:15;102011.25;;;0.32;76.29
38716;BME280;24833;49.324;8.694;2023-02-10T09:03:43;102013.56;;;0.38;76.45
38716;BME280;24833;49.324;8.694;2023-02-10T09:06:16;102016.69;;;0.46;75.86
38716;BME280;24833;49.324;8.694;2023-02-10T09:08:45;102015.44;;;0.53;76.11
38716;BME280;24833;49.324;8.694;2023-02-10T09:11:15;102020.41;;;0.59;76.18
38716;BME280;24833;49.324;8.694;2023-02-10T09:13:45;102027.06;;;0.66;76.07
38716;BME280;24833;49.324;8.694;2023-02-10T09:16:12;102022.44;;;0.71;76.04
38716;BME280;24833;49.324;8.694;2023-02-10T09:18:39;102022.13;;;0.77;76.32
38716;BME280;24833;49.324;8.694;2023-02-10T09:21:06;102027.94;;;0.84;76.27
38716;BME280;24833;49.324;8.694;2023-02-10T09:23:33;102026.78;;;0.90;76.32
38716;BME280;24833;49.324;8.694;2023-02-10T09:26:00;102032.59;;;0.96;75.94
38716;BME280;24833;49.324;8.694;2023-02-10T09:28:27;102034.81;;;1.04;76.05
38716;BME280;24833;49.324;8.694;2023-02-10T09:30:55;102042.50;;;1.08;75.96
38716;BME280;24833;49.324;8.694;2023-02-10T09:33:23;102048.28;;;1.15;76.03
38716;BME280;24833;49.324;8.694;2023-02-10T09:35:50;102047.97;;;1.21;76.00
38716;BME280;24833;49.324;8.694;2023-02-10T09:38:17;102051.06;;;1.29;76.00
38716;BME280;24833;49.324;8.694;2023-02-10T09:44:15;102051.81;;;1.49;76.03
38716;BME280;24833;49.324;8.694;2023-02-10T09:53:07;102041.84;;;1.71;75.96
38716;BME280;24833;49.324;8.694;2023-02-10T09:55:46;102038.88;;;1.77;76.03
38716;BME280;24833;49.324;8.694;2023-02-10T09:58:31;102035.91;;;1.83;76.20
38716;BME280;24833;49.324;8.694;2023-02-10T10:01:22;102024.88;;;1.92;76.10
38716;BME280;24833;49.324;8.694;2023-02-10T10:06:27;102031.16;;;2.06;76.23
38716;BME280;24833;49.324;8.694;2023-02-10T10:11:48;102022.25;;;2.24;76.40
38716;BME280;24833;49.324;8.694;2023-02-10T10:14:25;102024.34;;;2.33;76.44
38716;BME280;24833;49.324;8.694;2023-02-10T10:25:43;102039.47;;;2.61;76.06
38716;BME280;24833;49.324;8.694;2023-02-10T10:28:48;102033.16;;;2.64;76.27
38716;BME280;24833;49.324;8.694;2023-02-10T10:36:39;102038.16;;;2.84;76.34
38716;BME280;24833;49.324;8.694;2023-02-10T10:39:39;102019.22;;;2.92;76.63
38716;BME280;24833;49.324;8.694;2023-02-10T10:42:34;102025.75;;;3.00;76.47
38716;BME280;24833;49.324;8.694;2023-02-10T10:45:20;102026.22;;;3.07;76.27
38716;BME280;24833;49.324;8.694;2023-02-10T10:48:21;102028.34;;;3.16;76.64
38716;BME280;24833;49.324;8.694;2023-02-10T10:50:58;102032.31;;;3.23;76.52
38716;BME280;24833;49.324;8.694;2023-02-10T10:53:44;102036.28;;;3.31;76.44
38716;BME280;24833;49.324;8.694;2023-02-10T10:59:25;102023.75;;;3.48;77.03
38716;BME280;24833;49.324;8.694;2023-02-10T11:01:52;102022.34;;;3.57;76.68
38716;BME280;24833;49.324;8.694;2023-02-10T11:04:23;102019.13;;;3.66;77.10
38716;BME280;24833;49.324;8.694;2023-02-10T11:06:53;102016.78;;;3.76;77.25
38716;BME280;24833;49.324;8.694;2023-02-10T11:09:33;102023.16;;;3.86;77.57
38716;BME280;24833;49.324;8.694;2023-02-10T11:14:41;102015.78;;;4.05;77.43
38716;BME280;24833;49.324;8.694;2023-02-10T11:17:34;102021.13;;;4.18;77.11
38716;BME280;24833;49.324;8.694;2023-02-10T11:20:35;102011.97;;;4.24;77.49
38716;BME280;24833;49.324;8.694;2023-02-10T11:23:16;102007.88;;;4.32;77.39
38716;BME280;24833;49.324;8.694;2023-02-10T11:25:47;102017.19;;;4.38;77.35
38716;BME280;24833;49.324;8.694;2023-02-10T11:28:26;102014.06;;;4.46;77.67
38716;BME280;24833;49.324;8.694;2023-02-10T11:31:01;102016.84;;;4.57;77.67
38716;BME280;24833;49.324;8.694;2023-02-10T11:33:33;102010.09;;;4.65;77.74
38716;BME280;24833;49.324;8.694;2023-02-10T11:36:08;102008.56;;;4.76;78.06
38716;BME280;24833;49.324;8.694;2023-02-10T11:38:35;102006.22;;;4.84;78.26
38716;BME280;24833;49.324;8.694;2023-02-10T11:41:08;102006.56;;;4.92;78.02
38716;BME280;24833;49.324;8.694;2023-02-10T11:43:47;102005.50;;;5.07;78.93
38716;BME280;24833;49.324;8.694;2023-02-10T11:46:25;101999.59;;;5.16;78.58
38716;BME280;24833;49.324;8.694;2023-02-10T11:48:54;102003.41;;;5.25;78.21
38716;BME280;24833;49.324;8.694;2023-02-10T11:51:22;102000.03;;;5.36;78.74
38716;BME280;24833;49.324;8.694;2023-02-10T11:53:50;102008.19;;;5.45;78.87
38716;BME280;24833;49.324;8.694;2023-02-10T11:57:14;101994.28;;;5.55;78.99
38716;BME280;24833;49.324;8.694;2023-02-10T12:00:07;101987.28;;;5.66;78.95
38716;BME280;24833;49.324;8.694;2023-02-10T12:06:02;101982.25;;;6.00;80.47
38716;BME280;24833;49.324;8.694;2023-02-10T12:11:28;101967.19;;;6.24;79.81
38716;BME280;24833;49.324;8.694;2023-02-10T12:14:15;101974.25;;;6.37;79.63
38716;BME280;24833;49.324;8.694;2023-02-10T12:22:12;101969.03;;;6.59;79.27
38716;BME280;24833;49.324;8.694;2023-02-10T12:25:03;101969.44;;;6.66;79.64
38716;BME280;24833;49.324;8.694;2023-02-10T12:27:53;101964.75;;;6.69;79.35
38716;BME280;24833;49.324;8.694;2023-02-10T12:30:33;101976.81;;;6.73;79.68
38716;BME280;24833;49.324;8.694;2023-02-10T12:38:55;101953.69;;;6.87;79.53
38716;BME280;24833;49.324;8.694;2023-02-10T12:44:34;101949.38;;;6.97;78.95
38716;BME280;24833;49.324;8.694;2023-02-10T12:47:53;101956.75;;;7.04;79.96
38716;BME280;24833;49.324;8.694;2023-02-10T12:56:43;101936.69;;;7.12;78.55
38716;BME280;24833;49.324;8.694;2023-02-10T12:59:52;101931.03;;;7.16;79.22
38716;BME280;24833;49.324;8.694;2023-02-10T13:02:31;101927.63;;;7.14;78.51
38716;BME280;24833;49.324;8.694;2023-02-10T13:05:08;101925.44;;;7.08;77.74
38716;BME280;24833;49.324;8.694;2023-02-10T13:07:53;101918.72;;;7.04;77.88
38716;BME280;24833;49.324;8.694;2023-02-10T13:10:42;101921.59;;;7.01;78.12
38716;BME280;24833;49.324;8.694;2023-02-10T13:15:52;101927.63;;;6.92;77.36
38716;BME280;24833;49.324;8.694;2023-02-10T13:18:27;101929.56;;;6.90;77.52
38716;BME280;24833;49.324;8.694;2023-02-10T13:21:11;101923.28;;;6.91;77.97
38716;BME280;24833;49.324;8.694;2023-02-10T13:24:08;101925.69;;;6.94;78.04
38716;BME280;24833;49.324;8.694;2023-02-10T13:26:59;101925.94;;;7.02;79.38
38716;BME280;24833;49.324;8.694;2023-02-10T13:35:19;101922.09;;;7.28;78.29
38716;BME280;24833;49.324;8.694;2023-02-10T13:37:55;101923.19;;;7.37;78.30
38716;BME280;24833;49.324;8.694;2023-02-10T13:40:47;101920.63;;;7.47;79.31
38716;BME280;24833;49.324;8.694;2023-02-10T13:45:55;101924.00;;;7.60;78.46
38716;BME280;24833;49.324;8.694;2023-02-10T13:48:26;101924.22;;;7.68;78.47
38716;BME280;24833;49.324;8.694;2023-02-10T13:51:05;101927.16;;;7.76;79.09
38716;BME280;24833;49.324;8.694;2023-02-10T13:59:03;101929.91;;;7.86;78.69
38716;BME280;24833;49.324;8.694;2023-02-10T14:06:48;101924.28;;;8.00;77.72
38716;BME280;24833;49.324;8.694;2023-02-10T14:12:00;101922.69;;;8.09;78.04
38716;BME280;24833;49.324;8.694;2023-02-10T14:14:35;101925.59;;;8.17;78.62
38716;BME280;24833;49.324;8.694;2023-02-10T14:19:47;101924.34;;;8.21;77.40
38716;BME280;24833;49.324;8.694;2023-02-10T14:22:33;101917.19;;;8.22;78.38
38716;BME280;24833;49.324;8.694;2023-02-10T14:28:02;101917.13;;;8.12;76.51
38716;BME280;24833;49.324;8.694;2023-02-10T14:30:40;101914.00;;;8.07;77.38
38716;BME280;24833;49.324;8.694;2023-02-10T14:33:29;101918.41;;;7.97;77.27
38716;BME280;24833;49.324;8.694;2023-02-10T14:36:00;101913.34;;;7.82;76.01
38716;BME280;24833;49.324;8.694;2023-02-10T14:38:33;101919.41;;;7.73;76.35
38716;BME280;24833;49.324;8.694;2023-02-10T14:41:04;101908.06;;;7.60;75.75
38716;BME280;24833;49.324;8.694;2023-02-10T14:43:46;101917.00;;;7.48;75.73
38716;BME280;24833;49.324;8.694;2023-02-10T14:46:25;101898.16;;;7.40;76.64
38716;BME280;24833;49.324;8.694;2023-02-10T14:49:22;101911.22;;;7.31;77.34
38716;BME280;24833;49.324;8.694;2023-02-10T14:51:50;101903.25;;;7.20;75.78
38716;BME280;24833;49.324;8.694;2023-02-10T14:54:24;101902.88;;;7.14;76.70
38716;BME280;24833;49.324;8.694;2023-02-10T14:57:00;101909.53;;;7.08;76.85
38716;BME280;24833;49.324;8.694;2023-02-10T14:59:31;101906.41;;;7.03;76.47
38716;BME280;24833;49.324;8.694;2023-02-10T15:02:22;101904.09;;;6.98;76.25
38716;BME280;24833;49.324;8.694;2023-02-10T15:04:50;101895.88;;;6.90;76.35
38716;BME280;24833;49.324;8.694;2023-02-10T15:07:29;101894.28;;;6.88;76.54
38716;BME280;24833;49.324;8.694;2023-02-10T15:10:19;101889.44;;;6.81;76.60
38716;BME280;24833;49.324;8.694;2023-02-10T15:12:51;101894.28;;;6.76;76.22
38716;BME280;24833;49.324;8.694;2023-02-10T15:15:32;101889.19;;;6.73;76.86